Fargo, North Dakota
Current Conditions -  °F | °C
As of 1:53 AM on Saturday 25 Oct 2014 (Local Time) from KFAR Reporting Station
Clear Clear  
Wind Chill: 40°   Ceiling: Unl
Heat Index: 45°   Visibility: 10mi
Dew Point: 31°   Wind: 10mph
Humidity: 58%   Direction: 280°W
Pressure: 29.98"   Gusts: NA
Location:  46.88°N, 96.78°W
Report Text: KFAR 250653Z AUTO 28009KT 10SM CLR 07/M01 A2998 RMK AO2 SLP155 T00721006 TSNO
Loading
Personal Weather Stations






























Interactive Weather Map New forecast layout! Learn more

10-Day Weather Forecast

Advertisements
Track Severe Weather on mobile